Time;durP1;ratioP1;P1;durP2;ratioP2;P2;SDS_P1;SDS_P2;PMS_P1;PMS_P2;Temp;Humidity;BMP_temperature;BMP_pressure;BME280_temperature;BME280_humidity;BME280_pressure;Samples;Min_cycle;Max_cycle;Signal;HPM_P1;HPM_P2
2023/12/06 00:01:49;;;;;;;2.70;2.35;;;1.00;99.90;;;;;;6187029;23;20515;-73
2023/12/06 00:04:17;;;;;;;10.55;5.45;;;1.00;99.90;;;;;;6185509;23;20020;-73
2023/12/06 00:06:43;;;;;;;5.43;4.00;;;1.10;99.90;;;;;;6187760;23;20015;-74
2023/12/06 00:09:08;;;;;;;3.67;3.03;;;1.10;99.90;;;;;;6214093;23;20016;-74
2023/12/06 00:11:34;;;;;;;5.15;3.22;;;1.10;99.90;;;;;;6215228;23;20055;-73
2023/12/06 00:13:59;;;;;;;6.18;2.13;;;1.10;99.90;;;;;;6213950;23;20016;-73
2023/12/06 00:16:25;;;;;;;5.07;2.65;;;1.10;99.90;;;;;;6187814;23;20012;-73
2023/12/06 00:18:51;;;;;;;3.45;3.22;;;1.10;99.90;;;;;;6185861;23;20375;-72
2023/12/06 00:21:16;;;;;;;12.13;3.60;;;1.10;99.90;;;;;;6214057;23;20020;-74
2023/12/06 00:23:42;;;;;;;6.60;3.80;;;1.10;99.90;;;;;;6187496;23;20024;-73
2023/12/06 00:26:08;;;;;;;3.70;2.58;;;1.10;99.90;;;;;;6186038;23;20059;-74
2023/12/06 00:28:33;;;;;;;3.78;2.90;;;1.10;99.90;;;;;;6183843;23;20016;-73
2023/12/06 00:30:59;;;;;;;3.10;2.75;;;1.10;99.90;;;;;;6186330;23;20506;-74
2023/12/06 00:33:25;;;;;;;2.75;2.50;;;1.10;99.90;;;;;;6186961;23;20460;-72
2023/12/06 00:35:50;;;;;;;4.90;2.95;;;1.10;99.90;;;;;;6182523;23;20070;-72
2023/12/06 00:38:16;;;;;;;8.25;3.72;;;1.10;99.90;;;;;;6212071;23;20348;-74
2023/12/06 00:40:42;;;;;;;7.40;5.05;;;1.20;99.90;;;;;;6186014;23;20017;-74
2023/12/06 00:43:07;;;;;;;3.88;2.95;;;1.20;99.90;;;;;;6210332;23;20555;-73
2023/12/06 00:45:33;;;;;;;4.63;3.15;;;1.20;99.90;;;;;;6185174;23;20066;-74
2023/12/06 00:47:59;;;;;;;2.90;2.25;;;1.10;99.90;;;;;;6186838;23;20436;-74
2023/12/06 00:50:24;;;;;;;3.53;2.78;;;1.10;99.90;;;;;;6184103;23;20044;-74
2023/12/06 00:52:52;;;;;;;7.72;4.43;;;1.10;99.90;;;;;;6184624;23;20012;-74
2023/12/06 00:55:17;;;;;;;3.00;2.05;;;1.10;99.90;;;;;;6185716;23;20503;-74
2023/12/06 00:57:43;;;;;;;3.85;2.47;;;1.10;99.90;;;;;;6186506;23;20456;-73
2023/12/06 01:00:10;;;;;;;6.20;3.50;;;1.10;99.90;;;;;;6183213;23;20008;-73
2023/12/06 01:02:35;;;;;;;9.90;3.15;;;1.10;99.90;;;;;;6186798;23;20020;-73
2023/12/06 01:05:01;;;;;;;5.00;1.95;;;1.00;99.90;;;;;;6186171;23;20017;-74
2023/12/06 01:07:28;;;;;;;6.70;3.95;;;1.10;99.90;;;;;;6187788;23;20036;-74
2023/12/06 01:09:53;;;;;;;7.05;3.28;;;1.00;99.90;;;;;;6213062;23;20012;-74
2023/12/06 01:12:20;;;;;;;3.40;2.70;;;1.00;99.90;;;;;;6188293;23;20135;-74
2023/12/06 01:14:45;;;;;;;4.78;4.18;;;1.00;99.90;;;;;;6183128;23;20067;-74
2023/12/06 01:17:11;;;;;;;5.53;2.70;;;1.00;99.90;;;;;;6184177;23;20371;-74
2023/12/06 01:19:37;;;;;;;10.05;3.97;;;1.00;99.90;;;;;;6213759;23;20052;-74
2023/12/06 01:22:02;;;;;;;3.28;2.35;;;1.00;99.90;;;;;;6186680;23;20032;-74
2023/12/06 01:24:28;;;;;;;8.73;2.53;;;1.00;99.90;;;;;;6184021;23;20071;-74
2023/12/06 01:26:53;;;;;;;8.68;3.28;;;1.00;99.90;;;;;;6187249;23;20095;-74
2023/12/06 01:29:19;;;;;;;14.57;5.03;;;1.00;99.90;;;;;;6185992;23;20012;-74
2023/12/06 01:31:45;;;;;;;3.20;2.78;;;1.00;99.90;;;;;;6187465;23;20538;-74
2023/12/06 01:34:10;;;;;;;5.05;2.28;;;0.90;99.90;;;;;;6185803;23;20435;-74
2023/12/06 01:36:36;;;;;;;1.63;1.38;;;1.00;99.90;;;;;;6186376;23;20135;-75
2023/12/06 01:39:02;;;;;;;7.95;3.50;;;1.00;99.90;;;;;;6183259;23;20052;-76
2023/12/06 01:41:27;;;;;;;4.88;2.72;;;1.00;99.90;;;;;;6161630;23;20082;-74
2023/12/06 01:43:53;;;;;;;1.73;1.60;;;1.00;99.90;;;;;;6184075;23;20020;-74
2023/12/06 01:46:19;;;;;;;7.45;4.28;;;1.00;99.90;;;;;;6185551;23;20008;-74
2023/12/06 01:48:46;;;;;;;4.13;2.88;;;1.00;99.90;;;;;;6182655;23;20272;-75
2023/12/06 01:51:13;;;;;;;6.82;3.60;;;1.00;99.90;;;;;;6185132;23;20080;-76
2023/12/06 01:53:39;;;;;;;3.20;2.25;;;1.00;99.90;;;;;;6183370;23;20066;-76
2023/12/06 01:56:06;;;;;;;6.90;4.18;;;1.00;99.90;;;;;;6182649;23;20029;-74
2023/12/06 01:58:34;;;;;;;3.08;2.33;;;1.00;99.90;;;;;;6209224;23;20017;-76
2023/12/06 02:01:01;;;;;;;1.48;1.38;;;1.00;99.90;;;;;;6212296;23;20348;-75
2023/12/06 02:03:26;;;;;;;7.03;3.75;;;1.00;99.90;;;;;;6184201;23;20351;-75
2023/12/06 02:05:53;;;;;;;2.22;1.63;;;1.00;99.90;;;;;;6183308;23;20016;-74
2023/12/06 02:08:19;;;;;;;7.13;2.15;;;1.00;99.90;;;;;;6183530;23;20091;-74
2023/12/06 02:10:45;;;;;;;4.43;1.48;;;1.00;99.90;;;;;;6184420;23;20454;-74
2023/12/06 02:13:11;;;;;;;5.70;2.45;;;1.00;99.90;;;;;;6184327;23;20084;-75
2023/12/06 02:15:36;;;;;;;9.48;5.50;;;0.90;99.90;;;;;;6184205;23;20091;-74
2023/12/06 02:18:02;;;;;;;0.90;0.82;;;0.90;99.90;;;;;;6184515;23;20403;-74
2023/12/06 02:20:29;;;;;;;5.38;2.95;;;1.00;99.90;;;;;;6211411;23;20019;-73
2023/12/06 02:22:57;;;;;;;4.70;2.28;;;1.00;99.90;;;;;;6183603;23;20050;-74
2023/12/06 02:25:22;;;;;;;3.88;3.47;;;1.00;99.90;;;;;;6209890;23;20012;-74
2023/12/06 02:27:48;;;;;;;5.18;2.45;;;1.00;99.90;;;;;;6184084;23;20451;-74
2023/12/06 02:30:14;;;;;;;4.50;2.80;;;1.00;99.90;;;;;;6211907;23;20138;-74
2023/12/06 02:32:39;;;;;;;14.25;4.65;;;1.00;99.90;;;;;;6184227;23;20005;-74
2023/12/06 02:35:27;;;;;;;4.95;2.33;;;1.00;99.90;;;;;;6182952;23;20009;-74
2023/12/06 02:37:56;;;;;;;4.88;3.55;;;1.00;99.90;;;;;;6181885;23;20053;-73
2023/12/06 02:40:23;;;;;;;8.55;4.43;;;1.00;99.90;;;;;;6183168;23;20044;-73
2023/12/06 02:42:49;;;;;;;2.55;1.92;;;1.00;99.90;;;;;;6182666;23;20107;-72
2023/12/06 02:45:15;;;;;;;6.18;2.85;;;1.00;99.90;;;;;;6182229;23;20480;-74
2023/12/06 02:47:40;;;;;;;6.30;3.15;;;1.00;99.90;;;;;;6209191;23;20432;-75
2023/12/06 02:50:07;;;;;;;7.93;2.92;;;1.00;99.90;;;;;;6210720;23;20459;-75
2023/12/06 02:52:32;;;;;;;3.35;2.15;;;1.00;99.90;;;;;;6184808;23;20017;-75
2023/12/06 02:54:58;;;;;;;5.28;2.88;;;1.00;99.90;;;;;;6183377;23;20409;-75
2023/12/06 02:57:23;;;;;;;7.85;3.42;;;1.00;99.90;;;;;;6184980;23;20017;-75
2023/12/06 02:59:49;;;;;;;8.32;4.18;;;1.00;99.90;;;;;;6211577;23;20083;-74
2023/12/06 03:02:14;;;;;;;6.18;2.90;;;1.00;99.90;;;;;;6188249;23;20087;-74
2023/12/06 03:04:40;;;;;;;1.92;1.73;;;1.00;99.90;;;;;;6185963;23;20390;-73
2023/12/06 03:07:05;;;;;;;1.88;1.35;;;1.00;99.90;;;;;;6188562;23;20008;-72
2023/12/06 03:09:31;;;;;;;3.58;2.92;;;1.10;99.90;;;;;;6185979;23;20013;-72
2023/12/06 03:11:56;;;;;;;7.72;3.60;;;1.10;99.90;;;;;;6188445;23;20020;-73
2023/12/06 03:14:22;;;;;;;1.77;1.35;;;1.10;99.90;;;;;;6186432;23;20013;-73
2023/12/06 03:16:47;;;;;;;8.82;3.83;;;1.10;99.90;;;;;;6185850;23;20016;-72
2023/12/06 03:19:13;;;;;;;2.05;1.55;;;1.10;99.90;;;;;;6183468;23;20016;-73
2023/12/06 03:21:39;;;;;;;2.30;1.98;;;1.10;99.90;;;;;;6186049;23;20048;-74
2023/12/06 03:24:05;;;;;;;2.72;2.50;;;1.20;99.90;;;;;;6158829;23;20017;-74
2023/12/06 03:26:31;;;;;;;9.65;2.20;;;1.20;99.90;;;;;;6185376;23;20047;-73
2023/12/06 03:28:57;;;;;;;7.07;3.13;;;1.20;99.90;;;;;;6187630;23;20038;-74
2023/12/06 03:31:22;;;;;;;3.42;2.60;;;1.20;99.90;;;;;;6187830;23;20084;-74
2023/12/06 03:33:48;;;;;;;5.57;3.53;;;1.30;99.90;;;;;;6214059;23;20039;-73
2023/12/06 03:36:14;;;;;;;3.58;2.28;;;1.20;99.90;;;;;;6163878;23;20043;-73
2023/12/06 03:38:40;;;;;;;5.03;2.13;;;1.30;99.90;;;;;;6185893;23;20016;-74
2023/12/06 03:41:05;;;;;;;7.20;3.55;;;1.30;99.90;;;;;;6186421;23;20016;-74
2023/12/06 03:43:32;;;;;;;3.03;2.78;;;1.30;99.90;;;;;;6185864;23;20444;-73
2023/12/06 03:45:58;;;;;;;6.43;2.58;;;1.30;99.90;;;;;;6187032;23;20009;-74
2023/12/06 03:48:24;;;;;;;2.83;2.55;;;1.30;99.90;;;;;;6188022;23;20013;-74
2023/12/06 03:50:50;;;;;;;7.93;3.13;;;1.30;99.90;;;;;;6187628;23;20443;-74
2023/12/06 03:53:16;;;;;;;5.25;1.98;;;1.40;99.90;;;;;;6188748;23;20015;-73
2023/12/06 03:55:42;;;;;;;6.78;1.55;;;1.40;99.90;;;;;;6187442;23;20044;-75
2023/12/06 03:58:07;;;;;;;2.40;1.75;;;1.40;99.90;;;;;;6184543;23;20017;-74
2023/12/06 04:00:33;;;;;;;7.38;1.98;;;1.40;99.90;;;;;;6162193;23;20076;-73
2023/12/06 04:02:59;;;;;;;2.60;2.33;;;1.40;99.90;;;;;;6184404;23;20024;-73
2023/12/06 04:05:25;;;;;;;7.90;4.20;;;1.40;99.90;;;;;;6184594;23;20387;-74
2023/12/06 04:07:55;;;;;;;6.15;2.63;;;1.50;99.90;;;;;;6186150;23;20073;-74
2023/12/06 04:10:21;;;;;;;1.48;1.38;;;1.40;99.90;;;;;;6214843;23;20123;-74
2023/12/06 04:12:47;;;;;;;2.50;2.33;;;1.50;99.90;;;;;;6188024;23;20452;-73
2023/12/06 04:15:12;;;;;;;5.18;1.92;;;1.50;99.90;;;;;;6188778;23;20005;-73
2023/12/06 04:17:38;;;;;;;13.70;2.05;;;1.50;99.90;;;;;;6163093;23;20439;-73
2023/12/06 04:20:08;;;;;;;2.10;1.83;;;1.50;99.90;;;;;;6188489;23;20395;-72
2023/12/06 04:22:37;;;;;;;5.22;2.30;;;1.50;99.90;;;;;;6188558;23;20431;-73
2023/12/06 04:25:03;;;;;;;3.42;2.67;;;1.50;99.90;;;;;;6188321;23;20016;-73
2023/12/06 04:27:33;;;;;;;3.22;1.75;;;1.50;99.90;;;;;;6188471;23;20009;-72
2023/12/06 04:29:59;;;;;;;2.10;1.98;;;1.50;99.90;;;;;;6189282;23;20027;-73
2023/12/06 04:32:24;;;;;;;3.40;2.58;;;1.50;99.90;;;;;;6189744;23;20015;-73
2023/12/06 04:34:55;;;;;;;4.22;1.83;;;1.60;99.90;;;;;;6216439;23;20016;-73
2023/12/06 04:37:23;;;;;;;1.55;1.45;;;1.60;99.90;;;;;;6163738;23;20070;-74
2023/12/06 04:39:49;;;;;;;2.47;2.30;;;1.60;99.90;;;;;;6189389;23;20448;-74
2023/12/06 04:42:14;;;;;;;2.22;1.70;;;1.60;99.90;;;;;;6189040;23;20027;-73
2023/12/06 04:44:40;;;;;;;5.43;1.98;;;1.60;99.90;;;;;;6188611;23;20562;-73
2023/12/06 04:47:06;;;;;;;2.90;2.20;;;1.60;99.90;;;;;;6189125;23;20012;-72
2023/12/06 04:49:32;;;;;;;3.97;1.42;;;1.60;99.90;;;;;;6188225;23;20008;-74
2023/12/06 04:52:00;;;;;;;3.22;1.45;;;1.60;99.90;;;;;;6187950;23;20075;-73
2023/12/06 04:54:36;;;;;;;2.08;1.92;;;1.60;99.90;;;;;;6187796;23;20008;-73
2023/12/06 04:57:02;;;;;;;2.72;1.45;;;1.60;99.90;;;;;;6188822;23;20017;-73
2023/12/06 04:59:28;;;;;;;3.42;2.70;;;1.60;99.90;;;;;;6213978;23;20559;-72
2023/12/06 05:01:54;;;;;;;2.28;1.75;;;1.70;99.90;;;;;;6188645;23;20017;-71
2023/12/06 05:04:22;;;;;;;1.90;1.80;;;1.70;99.90;;;;;;6215598;23;20070;-72
2023/12/06 05:06:48;;;;;;;3.72;2.15;;;1.60;99.90;;;;;;6163768;23;20012;-72
2023/12/06 05:09:14;;;;;;;1.77;1.55;;;1.70;99.90;;;;;;6188177;23;20126;-73
2023/12/06 05:11:39;;;;;;;2.83;2.58;;;1.70;99.90;;;;;;6188046;23;20392;-73
2023/12/06 05:14:05;;;;;;;6.05;1.10;;;1.70;99.90;;;;;;6188795;23;20017;-72
2023/12/06 05:17:10;;;;;;;0.95;0.95;;;1.70;99.90;;;;;;6216838;23;20012;-72
2023/12/06 05:19:36;;;;;;;2.60;1.67;;;1.70;99.90;;;;;;6189800;23;20089;-72
2023/12/06 05:22:02;;;;;;;1.10;1.05;;;1.70;99.90;;;;;;6189761;23;20118;-71
2023/12/06 05:24:28;;;;;;;5.53;2.05;;;1.70;99.90;;;;;;6216809;23;20009;-74
2023/12/06 05:27:09;;;;;;;1.50;1.40;;;1.80;99.90;;;;;;6189796;23;20012;-73
2023/12/06 05:29:35;;;;;;;9.18;2.35;;;1.70;99.90;;;;;;6190158;23;20008;-72
2023/12/06 05:32:00;;;;;;;1.38;1.25;;;1.70;99.90;;;;;;6165086;23;20084;-72
2023/12/06 05:38:06;;;;;;;2.25;2.05;;;1.70;99.90;;;;;;6216788;23;20031;-72
2023/12/06 05:40:33;;;;;;;4.30;1.75;;;1.70;99.90;;;;;;6189695;23;20017;-73
2023/12/06 05:46:39;;;;;;;3.35;1.65;;;1.80;99.90;;;;;;6216482;23;20047;-73
2023/12/06 05:49:05;;;;;;;1.90;1.23;;;1.80;99.90;;;;;;6216261;23;20017;-74
2023/12/06 05:51:39;;;;;;;2.40;1.52;;;1.80;99.90;;;;;;6189555;23;20012;-74
2023/12/06 05:54:05;;;;;;;5.22;1.48;;;1.80;99.90;;;;;;6189572;23;20013;-72
2023/12/06 05:56:30;;;;;;;3.85;2.10;;;1.80;99.90;;;;;;6165001;23;20341;-73
2023/12/06 06:02:37;;;;;;;3.47;1.67;;;1.80;99.90;;;;;;6216523;23;20007;-73
2023/12/06 06:05:03;;;;;;;4.15;2.33;;;1.80;99.90;;;;;;6189731;23;20099;-72
2023/12/06 06:07:28;;;;;;;1.63;0.95;;;1.80;99.90;;;;;;6189367;23;20013;-73
2023/12/06 06:09:54;;;;;;;2.50;1.55;;;1.90;99.90;;;;;;6189816;23;20009;-74
2023/12/06 06:12:19;;;;;;;2.15;1.95;;;1.90;99.90;;;;;;6189727;23;20105;-73
2023/12/06 06:14:45;;;;;;;4.50;2.28;;;1.90;99.90;;;;;;6216721;23;20015;-73
2023/12/06 06:17:18;;;;;;;1.85;1.48;;;1.90;99.90;;;;;;6189072;23;20015;-74
2023/12/06 06:19:44;;;;;;;3.83;2.63;;;1.90;99.90;;;;;;6216107;23;20019;-72
2023/12/06 06:22:09;;;;;;;1.83;1.73;;;1.90;99.90;;;;;;6216330;23;20012;-74
2023/12/06 06:24:35;;;;;;;2.15;1.30;;;1.90;99.90;;;;;;6189315;23;20436;-73
2023/12/06 06:27:02;;;;;;;1.17;1.05;;;1.90;99.90;;;;;;6216100;23;20013;-74
2023/12/06 06:29:28;;;;;;;1.17;1.08;;;1.90;99.90;;;;;;6164409;23;20009;-74
2023/12/06 06:31:53;;;;;;;0.88;0.88;;;1.90;99.90;;;;;;6189396;23;20503;-73
2023/12/06 06:34:20;;;;;;;1.42;1.33;;;2.00;99.90;;;;;;6189126;23;20196;-74
2023/12/06 06:36:45;;;;;;;0.52;0.52;;;2.00;99.90;;;;;;6189373;23;20016;-73
2023/12/06 06:39:38;;;;;;;1.70;1.55;;;2.00;99.90;;;;;;6164621;23;20015;-74
2023/12/06 06:42:12;;;;;;;3.30;1.67;;;2.00;99.90;;;;;;6189026;23;20020;-74
2023/12/06 06:44:40;;;;;;;1.88;1.70;;;2.10;99.90;;;;;;6188692;23;20440;-74
2023/12/06 06:47:07;;;;;;;2.17;1.75;;;2.10;99.90;;;;;;6187820;23;20044;-75
2023/12/06 06:49:32;;;;;;;1.20;1.05;;;2.20;99.90;;;;;;6163015;23;20016;-74
2023/12/06 06:52:15;;;;;;;3.20;2.05;;;2.20;99.90;;;;;;6189280;23;20019;-75
2023/12/06 06:54:41;;;;;;;1.40;1.30;;;2.20;99.90;;;;;;6164443;23;20012;-74
2023/12/06 06:57:06;;;;;;;1.80;1.17;;;2.20;99.90;;;;;;6216262;23;20451;-74
2023/12/06 06:59:32;;;;;;;1.58;1.48;;;2.20;99.90;;;;;;6164175;23;20096;-74
2023/12/06 07:01:57;;;;;;;2.28;1.25;;;2.20;99.90;;;;;;6215408;23;20021;-75
2023/12/06 07:04:23;;;;;;;3.95;1.75;;;2.20;99.90;;;;;;6164265;23;20103;-75
2023/12/06 07:06:54;;;;;;;1.63;1.55;;;2.30;99.90;;;;;;6187768;23;20023;-75
2023/12/06 07:09:20;;;;;;;2.20;2.00;;;2.30;99.90;;;;;;6188302;23;20100;-74
2023/12/06 07:11:45;;;;;;;2.15;1.95;;;2.30;99.90;;;;;;6186774;23;20044;-75
2023/12/06 07:14:11;;;;;;;1.40;1.20;;;2.30;99.90;;;;;;6185873;23;20012;-74
2023/12/06 07:20:18;;;;;;;2.83;1.40;;;2.30;99.90;;;;;;6218551;23;20458;-76
2023/12/06 07:22:43;;;;;;;1.92;1.45;;;2.40;99.90;;;;;;6191892;23;20084;-74
2023/12/06 07:25:09;;;;;;;4.20;1.45;;;2.40;99.90;;;;;;6189973;23;20024;-74
2023/12/06 07:27:35;;;;;;;0.77;0.77;;;2.40;99.90;;;;;;6215537;23;20036;-73
2023/12/06 07:30:00;;;;;;;1.50;0.75;;;2.40;99.90;;;;;;6216606;23;20028;-74
2023/12/06 07:32:26;;;;;;;1.90;1.35;;;2.40;99.90;;;;;;6188168;23;20013;-74
2023/12/06 07:34:51;;;;;;;1.63;0.98;;;2.40;99.90;;;;;;6214472;23;20008;-72
2023/12/06 07:37:17;;;;;;;2.33;1.27;;;2.40;99.90;;;;;;6215733;23;20017;-73
2023/12/06 07:39:47;;;;;;;2.78;1.10;;;2.40;99.90;;;;;;6189089;23;20387;-73
2023/12/06 07:42:13;;;;;;;4.60;1.55;;;2.50;99.90;;;;;;6189030;23;20017;-74
2023/12/06 07:44:38;;;;;;;2.70;1.70;;;2.40;99.90;;;;;;6189187;23;20012;-74
2023/12/06 07:47:33;;;;;;;4.70;2.03;;;2.50;99.90;;;;;;6217545;23;20020;-74
2023/12/06 07:49:59;;;;;;;0.93;0.85;;;2.50;99.90;;;;;;6191041;23;20066;-74
2023/12/06 07:52:24;;;;;;;2.95;1.80;;;2.50;99.90;;;;;;6190597;23;20009;-74
2023/12/06 07:54:50;;;;;;;1.50;1.40;;;2.50;99.90;;;;;;6190671;23;20019;-74
2023/12/06 07:57:15;;;;;;;2.40;1.60;;;2.50;99.90;;;;;;6191360;23;20012;-74
2023/12/06 07:59:43;;;;;;;1.25;1.08;;;2.50;99.90;;;;;;6190608;23;20325;-74
2023/12/06 08:02:33;;;;;;;2.13;1.52;;;2.60;99.90;;;;;;6190877;23;20016;-75
2023/12/06 08:05:23;;;;;;;1.30;1.20;;;2.60;99.90;;;;;;6189945;23;20021;-72
2023/12/06 08:07:49;;;;;;;1.83;1.60;;;2.60;99.90;;;;;;6190235;23;20048;-73
2023/12/06 08:14:36;;;;;;;1.63;1.52;;;2.60;99.90;;;;;;6217582;23;20011;-73
2023/12/06 08:20:48;;;;;;;4.95;2.53;;;2.60;99.90;;;;;;6217487;23;20027;-72
2023/12/06 08:23:14;;;;;;;3.00;1.48;;;2.60;99.90;;;;;;6190702;23;20017;-72
2023/12/06 08:25:40;;;;;;;2.15;1.20;;;2.70;99.90;;;;;;6190520;23;20498;-73
2023/12/06 08:28:10;;;;;;;2.92;1.27;;;2.60;99.90;;;;;;6190127;23;20336;-72
2023/12/06 08:30:36;;;;;;;1.13;1.10;;;2.70;99.90;;;;;;6216597;23;20013;-72
2023/12/06 08:33:02;;;;;;;4.07;1.63;;;2.70;99.90;;;;;;6190203;23;20048;-73
2023/12/06 08:35:30;;;;;;;1.08;0.85;;;2.70;99.90;;;;;;6190094;23;20016;-72
2023/12/06 08:37:57;;;;;;;0.93;0.88;;;2.70;99.90;;;;;;6190208;23;20008;-74
2023/12/06 08:40:24;;;;;;;2.65;1.33;;;2.70;99.90;;;;;;6188424;23;20381;-72
2023/12/06 08:42:50;;;;;;;0.88;0.80;;;2.70;99.90;;;;;;6214642;23;20016;-69
2023/12/06 08:45:15;;;;;;;1.08;0.95;;;2.60;99.90;;;;;;6189795;23;20071;-73
2023/12/06 08:48:06;;;;;;;1.80;0.68;;;2.70;99.90;;;;;;6190221;23;20317;-72
2023/12/06 08:50:31;;;;;;;4.78;2.35;;;2.60;99.90;;;;;;6216446;23;20016;-73
2023/12/06 08:53:16;;;;;;;1.73;1.58;;;2.60;99.90;;;;;;6216603;23;20012;-72
2023/12/06 08:55:41;;;;;;;1.00;0.90;;;2.70;99.90;;;;;;6189371;23;20015;-72
2023/12/06 08:58:07;;;;;;;7.50;2.05;;;2.70;99.90;;;;;;6165010;23;20012;-72
2023/12/06 09:01:03;;;;;;;2.33;2.10;;;2.70;99.90;;;;;;6189786;23;20016;-74
2023/12/06 09:07:09;;;;;;;3.92;1.33;;;2.70;99.90;;;;;;6216725;23;20506;-74
2023/12/06 09:10:08;;;;;;;4.18;2.53;;;2.80;99.90;;;;;;6190068;23;20009;-75
2023/12/06 09:12:34;;;;;;;3.20;1.75;;;2.80;99.90;;;;;;6190386;23;20095;-74
2023/12/06 09:22:21;;;;;;;0.65;0.65;;;2.90;99.90;;;;;;6216861;23;20011;-73
2023/12/06 09:24:48;;;;;;;3.10;1.60;;;2.90;99.90;;;;;;6190165;23;20009;-71
2023/12/06 09:27:15;;;;;;;5.30;2.50;;;3.00;99.90;;;;;;6190254;23;20009;-75
2023/12/06 09:33:21;;;;;;;2.55;2.35;;;3.10;99.90;;;;;;6216815;23;20023;-73
2023/12/06 09:39:27;;;;;;;2.25;0.90;;;3.10;99.90;;;;;;6217026;23;20486;-72
2023/12/06 09:45:34;;;;;;;3.40;1.45;;;3.20;99.90;;;;;;6216826;23;20008;-73
2023/12/06 09:51:41;;;;;;;0.60;0.50;;;3.30;99.90;;;;;;6216826;23;20043;-74
2023/12/06 09:54:31;;;;;;;2.20;1.50;;;3.30;99.90;;;;;;6218422;23;20004;-74
2023/12/06 10:00:37;;;;;;;1.63;1.45;;;3.40;99.90;;;;;;6215578;23;20047;-72
2023/12/06 10:06:43;;;;;;;1.60;1.00;;;3.50;99.90;;;;;;6218134;23;20543;-73
2023/12/06 10:09:10;;;;;;;0.40;0.40;;;3.50;99.90;;;;;;6192224;23;20012;-73
2023/12/06 10:15:17;;;;;;;1.45;1.10;;;3.50;99.90;;;;;;6219690;23;20008;-77
2023/12/06 10:17:42;;;;;;;1.75;1.27;;;3.50;99.90;;;;;;6188997;23;20017;-76
2023/12/06 10:20:08;;;;;;;2.15;1.15;;;3.50;99.90;;;;;;6197046;23;20055;-74
2023/12/06 10:22:34;;;;;;;3.40;1.63;;;3.50;99.90;;;;;;6221884;23;20063;-74
2023/12/06 10:25:00;;;;;;;3.13;1.77;;;3.50;99.90;;;;;;6193581;23;20016;-75
2023/12/06 10:27:29;;;;;;;0.82;0.82;;;3.50;99.90;;;;;;6192765;23;20019;-75
2023/12/06 10:33:39;;;;;;;1.10;1.00;;;3.50;99.90;;;;;;6219911;23;20011;-73
2023/12/06 10:39:49;;;;;;;1.88;1.42;;;3.60;99.90;;;;;;6221941;23;20008;-75
2023/12/06 10:42:19;;;;;;;1.30;1.30;;;3.60;99.90;;;;;;6196141;23;20095;-75
2023/12/06 10:48:28;;;;;;;3.50;1.80;;;3.70;99.90;;;;;;6227010;23;20028;-75
2023/12/06 10:50:56;;;;;;;13.35;1.52;;;3.70;99.90;;;;;;6196094;23;20491;-75
2023/12/06 10:57:03;;;;;;;1.10;1.02;;;3.70;99.90;;;;;;6227624;23;20016;-75
2023/12/06 10:59:31;;;;;;;1.70;1.30;;;3.70;99.90;;;;;;6193551;23;20091;-76
2023/12/06 11:01:57;;;;;;;3.22;1.30;;;3.80;99.90;;;;;;6220056;23;20008;-75
2023/12/06 11:04:31;;;;;;;8.02;1.92;;;3.80;99.90;;;;;;6218972;23;20381;-76
2023/12/06 11:11:03;;;;;;;3.60;2.03;;;3.80;99.90;;;;;;6222367;23;20514;-76
2023/12/06 11:17:19;;;;;;;0.70;0.47;;;3.90;99.90;;;;;;6218795;23;20051;-73
2023/12/06 11:23:27;;;;;;;1.85;1.25;;;4.00;99.90;;;;;;6220427;23;20007;-73
2023/12/06 11:25:53;;;;;;;3.30;2.15;;;4.00;99.90;;;;;;6192377;23;20336;-74
2023/12/06 11:28:20;;;;;;;4.22;2.95;;;4.10;99.90;;;;;;6218062;23;20031;-70
2023/12/06 11:30:51;;;;;;;2.25;1.48;;;4.10;99.90;;;;;;6187872;23;20020;-70
2023/12/06 11:33:17;;;;;;;0.82;0.70;;;4.00;99.90;;;;;;6188318;23;20376;-71
2023/12/06 11:35:54;;;;;;;2.25;1.73;;;4.10;99.90;;;;;;6187696;23;20067;-70
2023/12/06 11:38:37;;;;;;;2.80;1.02;;;4.10;99.90;;;;;;6186553;23;20013;-70
2023/12/06 11:41:06;;;;;;;1.15;0.95;;;4.10;99.90;;;;;;6187521;23;20027;-71
2023/12/06 11:43:33;;;;;;;2.28;1.30;;;4.10;99.90;;;;;;6184937;23;20005;-71
2023/12/06 11:46:09;;;;;;;1.20;0.63;;;4.10;99.90;;;;;;6212681;23;20051;-71
2023/12/06 11:48:37;;;;;;;1.50;0.85;;;4.10;99.90;;;;;;6187171;23;20369;-71
2023/12/06 11:51:04;;;;;;;5.10;1.27;;;4.10;99.90;;;;;;6187276;23;20013;-72
2023/12/06 11:53:30;;;;;;;2.92;1.00;;;4.10;99.90;;;;;;6187682;23;20020;-72
2023/12/06 11:55:56;;;;;;;4.65;2.53;;;4.10;99.90;;;;;;6186479;23;20083;-72
2023/12/06 11:58:32;;;;;;;1.10;1.10;;;4.10;99.90;;;;;;6215360;23;20021;-71
2023/12/06 12:01:06;;;;;;;1.92;1.80;;;4.10;99.90;;;;;;6189462;23;20351;-72
2023/12/06 12:03:31;;;;;;;0.80;0.80;;;4.10;99.90;;;;;;6189300;23;20027;-72
2023/12/06 12:05:58;;;;;;;2.13;1.25;;;4.10;99.90;;;;;;6187797;23;20025;-72
2023/12/06 12:08:24;;;;;;;1.65;1.33;;;4.10;99.90;;;;;;6210919;23;20040;-71
2023/12/06 12:10:57;;;;;;;1.17;0.93;;;4.10;99.90;;;;;;6212074;23;20009;-71
2023/12/06 12:13:23;;;;;;;1.58;1.38;;;4.10;99.90;;;;;;6183492;23;20009;-71
2023/12/06 12:15:56;;;;;;;2.17;1.42;;;4.20;99.90;;;;;;6161077;23;20009;-72
2023/12/06 12:18:23;;;;;;;;;;;4.10;99.90;;;;;;6184801;23;20009;-72
2023/12/06 12:20:48;;;;;;;1.30;0.75;;;4.10;99.90;;;;;;6186459;23;19920;-72
2023/12/06 12:23:14;;;;;;;0.60;0.60;;;4.10;99.90;;;;;;6183021;23;20009;-72
2023/12/06 12:25:48;;;;;;;1.40;1.15;;;4.10;99.90;;;;;;6212517;23;20016;-70
2023/12/06 12:28:21;;;;;;;4.30;2.08;;;4.10;99.90;;;;;;6183266;23;20017;-71
2023/12/06 12:30:55;;;;;;;2.30;1.15;;;4.10;99.90;;;;;;6209496;23;20075;-72
2023/12/06 12:33:22;;;;;;;1.30;1.02;;;4.10;99.90;;;;;;6183340;23;20444;-73
2023/12/06 12:35:48;;;;;;;1.73;1.38;;;4.10;99.90;;;;;;6185916;23;20021;-73
2023/12/06 12:38:16;;;;;;;2.03;1.38;;;4.10;99.90;;;;;;6213442;23;20494;-72
2023/12/06 12:40:43;;;;;;;1.13;1.05;;;4.10;99.90;;;;;;6185150;23;20441;-73
2023/12/06 12:43:10;;;;;;;0.65;0.63;;;4.20;99.90;;;;;;6185777;23;20088;-73
2023/12/06 12:45:37;;;;;;;2.67;1.48;;;4.20;99.90;;;;;;6187084;23;20088;-72
2023/12/06 12:48:04;;;;;;;1.65;1.35;;;4.20;99.90;;;;;;6187677;23;20079;-74
2023/12/06 12:50:31;;;;;;;1.48;0.82;;;4.20;99.90;;;;;;6188009;23;20017;-73
2023/12/06 12:52:57;;;;;;;1.13;1.13;;;4.30;99.90;;;;;;6186554;23;20331;-74
2023/12/06 12:55:25;;;;;;;2.40;1.85;;;4.30;99.90;;;;;;6185566;23;20036;-73
2023/12/06 12:57:59;;;;;;;0.75;0.75;;;4.30;99.90;;;;;;6161896;23;20016;-73
2023/12/06 13:00:32;;;;;;;1.63;1.52;;;4.30;99.90;;;;;;6189938;23;20495;-73
2023/12/06 13:02:59;;;;;;;1.10;0.98;;;4.30;99.90;;;;;;6215586;23;20020;-74
2023/12/06 13:05:27;;;;;;;2.75;1.30;;;4.30;99.90;;;;;;6214325;23;20013;-75
2023/12/06 13:07:59;;;;;;;2.55;1.42;;;4.40;99.90;;;;;;6187395;23;20020;-75
2023/12/06 13:10:28;;;;;;;1.27;1.08;;;4.40;99.90;;;;;;6162790;23;20012;-75
2023/12/06 13:12:58;;;;;;;0.55;0.55;;;4.40;99.90;;;;;;6213620;23;20005;-75
2023/12/06 13:15:24;;;;;;;1.58;1.10;;;4.30;99.90;;;;;;6188926;23;20432;-75
2023/12/06 13:17:49;;;;;;;2.15;1.25;;;4.40;99.90;;;;;;6186934;23;20016;-76
2023/12/06 13:20:16;;;;;;;1.30;1.25;;;4.40;99.90;;;;;;6189071;23;20016;-75
2023/12/06 13:22:41;;;;;;;3.50;1.52;;;4.40;99.90;;;;;;6187752;23;20009;-76
2023/12/06 13:25:08;;;;;;;2.10;1.13;;;4.40;99.90;;;;;;6213294;23;20615;-75
2023/12/06 13:27:33;;;;;;;5.28;0.73;;;4.40;99.90;;;;;;6214545;23;20016;-76
2023/12/06 13:30:12;;;;;;;1.35;1.10;;;4.40;99.90;;;;;;6187098;23;20432;-76
2023/12/06 13:32:37;;;;;;;2.20;0.85;;;4.40;99.90;;;;;;6187476;23;20009;-76
2023/12/06 13:35:03;;;;;;;0.70;0.70;;;4.40;99.90;;;;;;6188971;23;20015;-75
2023/12/06 13:37:48;;;;;;;0.63;0.63;;;4.40;99.90;;;;;;6187405;23;20055;-77
2023/12/06 13:40:13;;;;;;;1.65;0.77;;;4.40;99.90;;;;;;6187391;23;20367;-76
2023/12/06 13:42:39;;;;;;;3.70;1.55;;;4.40;99.90;;;;;;6190336;23;20052;-76
2023/12/06 13:45:05;;;;;;;2.88;1.05;;;4.40;99.90;;;;;;6186837;23;20016;-76
2023/12/06 13:47:31;;;;;;;1.40;0.82;;;4.40;99.90;;;;;;6187389;23;20021;-78
2023/12/06 13:49:56;;;;;;;1.05;0.95;;;4.40;99.90;;;;;;6185917;23;20514;-78
2023/12/06 13:52:22;;;;;;;1.33;1.15;;;4.50;99.90;;;;;;6185216;23;20070;-77
2023/12/06 13:54:48;;;;;;;1.85;0.50;;;4.40;99.90;;;;;;6186254;23;20009;-76
2023/12/06 13:57:15;;;;;;;1.88;1.30;;;4.50;99.90;;;;;;6185082;23;20097;-77
2023/12/06 13:59:42;;;;;;;0.60;0.60;;;4.50;99.90;;;;;;6185797;23;20013;-77
2023/12/06 14:02:07;;;;;;;3.58;1.60;;;4.50;99.90;;;;;;6186293;23;20392;-76
2023/12/06 14:04:33;;;;;;;1.75;1.15;;;4.50;99.90;;;;;;6184263;23;20050;-76
2023/12/06 14:06:58;;;;;;;1.15;1.05;;;4.50;99.90;;;;;;6182641;23;20093;-78
2023/12/06 14:09:27;;;;;;;2.63;1.38;;;4.40;99.90;;;;;;6211488;23;20008;-76
2023/12/06 14:11:55;;;;;;;0.57;0.55;;;4.40;99.90;;;;;;6211745;23;20012;-77
2023/12/06 14:14:21;;;;;;;2.33;1.63;;;4.40;99.90;;;;;;6185053;23;20015;-77
2023/12/06 14:16:47;;;;;;;0.30;0.30;;;4.40;99.90;;;;;;6158788;23;20355;-78
2023/12/06 14:19:13;;;;;;;2.00;1.15;;;4.40;99.90;;;;;;6211114;23;20087;-79
2023/12/06 14:21:39;;;;;;;3.13;1.10;;;4.40;99.90;;;;;;6185820;23;20027;-77
2023/12/06 14:24:05;;;;;;;1.20;0.93;;;4.40;99.90;;;;;;6157799;23;20016;-78
2023/12/06 14:26:32;;;;;;;0.63;0.63;;;4.40;99.90;;;;;;6187261;23;20019;-76